createdAt,value
2019-05-23T00:00:40.273Z,50384.85
2019-05-23T00:03:30.916Z,50368.78
2019-05-23T00:06:18.731Z,50367.78
2019-05-23T00:09:06.526Z,50368.78
2019-05-23T00:12:14.008Z,50364.77
2019-05-23T00:15:00.709Z,50421.01
2019-05-23T00:17:48.656Z,50370.79
2019-05-23T00:20:37.346Z,50368.78
2019-05-23T00:23:23.379Z,50378.82
2019-05-23T00:26:11.045Z,50360.75
2019-05-23T00:29:09.616Z,50363.76
2019-05-23T00:31:53.032Z,50388.87
2019-05-23T00:34:39.636Z,50393.89
2019-05-23T00:37:25.689Z,50359.74
2019-05-23T00:40:11.653Z,50346.69
2019-05-23T00:42:58.872Z,50374.81
2019-05-23T00:45:44.951Z,50384.85
2019-05-23T00:48:31.559Z,50352.71
2019-05-23T00:51:18.862Z,50377.82
2019-05-23T00:54:06.831Z,50357.73
2019-05-23T00:56:53.060Z,50346.69
2019-05-23T00:59:39.358Z,50400.92
2019-05-23T01:02:25.411Z,50359.74
2019-05-23T01:05:12.659Z,50345.68
2019-05-23T01:07:59.890Z,50373.80
2019-05-23T01:10:45.925Z,50395.90
2019-05-23T01:13:34.942Z,50389.87
2019-05-23T01:16:21.901Z,50386.86
2019-05-23T01:19:12.402Z,50368.78
2019-05-23T01:22:04.426Z,50378.82
2019-05-23T01:24:55.007Z,50394.89
2019-05-23T01:27:41.240Z,50409.96
2019-05-23T01:30:30.291Z,50376.82
2019-05-23T01:33:17.819Z,50385.86
2019-05-23T01:36:04.235Z,50375.81
2019-05-23T01:38:51.140Z,50379.83
2019-05-23T01:41:37.097Z,50364.77
2019-05-23T01:44:29.162Z,50401.93
2019-05-23T01:47:15.503Z,50356.73
2019-05-23T01:50:02.833Z,50387.86
2019-05-23T01:52:49.326Z,50397.91
2019-05-23T01:55:35.425Z,50406.95
2019-05-23T01:58:21.600Z,50391.88
2019-05-23T02:01:07.658Z,50364.77
2019-05-23T02:03:53.638Z,50362.75
2019-05-23T02:06:39.349Z,50371.79
2019-05-23T02:09:25.505Z,50344.68
2019-05-23T02:12:11.982Z,50388.87
2019-05-23T02:14:59.672Z,50390.88
2019-05-23T02:17:46.952Z,50354.72
2019-05-23T02:20:33.646Z,50393.89
2019-05-23T02:23:20.031Z,50369.79
2019-05-23T02:26:07.777Z,50382.84
2019-05-23T02:28:53.984Z,50394.89
2019-05-23T02:31:40.401Z,50378.82
2019-05-23T02:34:26.419Z,50396.91
2019-05-23T02:37:22.602Z,50382.84
2019-05-23T02:40:16.785Z,50352.71
2019-05-23T02:43:05.148Z,50374.81
2019-05-23T02:45:52.044Z,50385.86
2019-05-23T02:48:41.548Z,50372.80
2019-05-23T02:51:27.681Z,50394.89
2019-05-23T02:54:17.858Z,50364.77
2019-05-23T02:57:12.998Z,50393.89
2019-05-23T02:59:59.438Z,50360.75
2019-05-23T03:02:48.078Z,50390.88
2019-05-23T03:05:37.318Z,50420.00
2019-05-23T03:08:24.653Z,50358.74
2019-05-23T03:11:12.319Z,50401.93
2019-05-23T03:13:59.787Z,50400.92
2019-05-23T03:16:46.296Z,50383.85
2019-05-23T03:19:32.462Z,50394.89
2019-05-23T03:22:18.666Z,50378.82
2019-05-23T03:25:09.105Z,50338.65
2019-05-23T03:27:55.549Z,50410.96
2019-05-23T03:30:43.327Z,50373.80
2019-05-23T03:33:29.592Z,50363.76
2019-05-23T03:36:16.120Z,50421.01
2019-05-23T03:39:02.899Z,50393.89
2019-05-23T03:41:52.045Z,50408.96
2019-05-23T03:44:39.174Z,50377.82
2019-05-23T03:47:25.558Z,50406.95
2019-05-23T03:50:12.759Z,50376.82
2019-05-23T03:52:59.638Z,50383.85
2019-05-23T03:55:47.788Z,50364.77
2019-05-23T03:58:36.118Z,50360.75
2019-05-23T04:01:24.525Z,50374.81
2019-05-23T04:04:11.212Z,50385.86
2019-05-23T04:06:59.081Z,50395.90
2019-05-23T04:09:46.251Z,50385.86
2019-05-23T04:12:32.861Z,50396.91
2019-05-23T04:15:19.153Z,50375.81
2019-05-23T04:18:05.136Z,50350.70
2019-05-23T04:20:51.782Z,50362.75
2019-05-23T04:23:38.185Z,50371.79
2019-05-23T04:26:27.466Z,50398.91
2019-05-23T04:29:13.955Z,50376.82
2019-05-23T04:32:08.627Z,50358.74
2019-05-23T04:34:53.663Z,50393.89
2019-05-23T04:37:39.999Z,50393.89
2019-05-23T04:40:26.089Z,50404.94
2019-05-23T04:43:12.493Z,50384.85
2019-05-23T04:45:58.771Z,50416.99
2019-05-23T04:48:45.214Z,50362.75
2019-05-23T04:51:31.747Z,50419.00
2019-05-23T04:54:17.868Z,50379.83
2019-05-23T04:57:04.750Z,50378.82
2019-05-23T04:59:50.942Z,50372.80
2019-05-23T05:02:36.997Z,50392.89
2019-05-23T05:05:23.313Z,50402.93
2019-05-23T05:08:09.918Z,50356.73
2019-05-23T05:10:58.568Z,50399.92
2019-05-23T05:13:44.914Z,50384.85
2019-05-23T05:16:31.764Z,50395.90
2019-05-23T05:19:18.251Z,50373.80
2019-05-23T05:22:06.703Z,50345.68
2019-05-23T05:24:53.116Z,50395.90
2019-05-23T05:27:39.231Z,50380.84
2019-05-23T05:30:29.313Z,50387.86
2019-05-23T05:33:15.625Z,50403.93
2019-05-23T05:36:02.022Z,50388.87
2019-05-23T05:38:47.982Z,50397.91
2019-05-23T05:41:34.467Z,50402.93
2019-05-23T05:44:21.569Z,50381.84
2019-05-23T05:47:09.984Z,50376.82
2019-05-23T05:49:56.247Z,50368.78
2019-05-23T05:52:43.023Z,50381.84
2019-05-23T05:55:29.363Z,50364.77
2019-05-23T05:58:15.650Z,50386.86
2019-05-23T06:01:04.984Z,50367.78
2019-05-23T06:03:51.951Z,50405.95
2019-05-23T06:06:50.541Z,50385.86
2019-05-23T06:09:37.474Z,50362.75
2019-05-23T06:12:23.747Z,50371.79
2019-05-23T06:15:12.524Z,50358.74
2019-05-23T06:17:58.944Z,50358.74
2019-05-23T06:20:47.275Z,50356.73
2019-05-23T06:23:35.631Z,50377.82
2019-05-23T06:26:22.103Z,50387.86
2019-05-23T06:29:08.744Z,50376.82
2019-05-23T06:31:55.161Z,50378.82
2019-05-23T06:34:41.659Z,50402.93
2019-05-23T06:37:33.843Z,50408.96
2019-05-23T06:40:18.886Z,50362.75
2019-05-23T06:43:08.711Z,50369.79
2019-05-23T06:45:54.931Z,50354.72
2019-05-23T06:48:45.540Z,50386.86
2019-05-23T06:51:29.263Z,50388.87
2019-05-23T06:54:15.533Z,50383.85
2019-05-23T06:57:02.769Z,50376.82
2019-05-23T06:59:49.896Z,50393.89
2019-05-23T07:02:36.107Z,50377.82
2019-05-23T07:05:24.845Z,50380.84
2019-05-23T07:08:11.431Z,50351.71
2019-05-23T07:10:59.000Z,50373.80
2019-05-23T07:13:46.611Z,50386.86
2019-05-23T07:16:32.807Z,50349.70
2019-05-23T07:19:20.982Z,50362.75
2019-05-23T07:22:07.070Z,50395.90
2019-05-23T07:25:00.280Z,50364.77
2019-05-23T07:27:49.573Z,50378.82
2019-05-23T07:30:35.519Z,50404.94
2019-05-23T07:33:21.590Z,50366.77
2019-05-23T07:36:07.988Z,50382.84
2019-05-23T07:38:54.624Z,50389.87
2019-05-23T07:41:40.685Z,50387.86
2019-05-23T07:44:27.147Z,50396.91
2019-05-23T07:47:13.671Z,50385.86
2019-05-23T07:49:59.875Z,50381.84
2019-05-23T07:52:45.993Z,50395.90
2019-05-23T07:55:36.449Z,50346.69
2019-05-23T07:58:22.733Z,50399.92
2019-05-23T08:01:11.039Z,50373.80
2019-05-23T08:03:57.512Z,50373.80
2019-05-23T08:06:48.051Z,50376.82
2019-05-23T08:09:32.383Z,50349.70
2019-05-23T08:12:19.328Z,50406.95
2019-05-23T08:15:06.042Z,50371.79
2019-05-23T08:17:52.436Z,50378.82
2019-05-23T08:20:38.661Z,50374.81
2019-05-23T08:23:25.190Z,50370.79
2019-05-23T08:26:13.147Z,50397.91
2019-05-23T08:29:24.244Z,50388.87
2019-05-23T08:31:49.621Z,50365.77
2019-05-23T08:34:41.565Z,50380.84
2019-05-23T08:37:24.068Z,50337.65
2019-05-23T08:40:11.230Z,50369.79
2019-05-23T08:42:58.232Z,50344.68
2019-05-23T08:45:44.580Z,50386.86
2019-05-23T08:48:30.973Z,50385.86
2019-05-23T08:51:17.239Z,50383.85
2019-05-23T08:54:03.480Z,50371.79
2019-05-23T08:56:52.813Z,50379.83
2019-05-23T08:59:39.801Z,50385.86
2019-05-23T09:02:27.440Z,50385.86
2019-05-23T09:05:14.033Z,50346.69
2019-05-23T09:08:00.355Z,50378.82
2019-05-23T09:10:47.562Z,50360.75
2019-05-23T09:13:33.840Z,50382.84
2019-05-23T09:16:20.616Z,50381.84
2019-05-23T09:19:07.066Z,50354.72
2019-05-23T09:21:58.976Z,50358.74
2019-05-23T09:24:45.367Z,50356.73
2019-05-23T09:27:34.630Z,50400.92
2019-05-23T09:30:20.827Z,50346.69
2019-05-23T09:33:07.206Z,50352.71
2019-05-23T09:35:53.502Z,50382.84
2019-05-23T09:38:39.567Z,50343.68
2019-05-23T09:41:28.925Z,50369.79
2019-05-23T09:44:17.878Z,50369.79
2019-05-23T09:47:03.869Z,50365.77
2019-05-23T09:49:56.870Z,50381.84
2019-05-23T09:52:37.972Z,50352.71
2019-05-23T09:55:24.241Z,50352.71
2019-05-23T09:58:10.026Z,50380.84
2019-05-23T10:00:56.122Z,50354.72
2019-05-23T10:03:42.283Z,50361.75
2019-05-23T10:06:28.167Z,50361.75
2019-05-23T10:09:14.341Z,50388.87
2019-05-23T10:12:00.618Z,50388.87
2019-05-23T10:14:46.714Z,50381.84
2019-05-23T10:17:33.149Z,50378.82
2019-05-23T10:20:24.027Z,50379.83
2019-05-23T10:23:10.057Z,50389.87
2019-05-23T10:25:56.088Z,50356.73
2019-05-23T10:28:44.941Z,50390.88
2019-05-23T10:31:31.122Z,50351.71
2019-05-23T10:34:17.285Z,50391.88
2019-05-23T10:37:03.908Z,50369.79
2019-05-23T10:39:50.284Z,50339.66
2019-05-23T10:42:36.534Z,50358.74
2019-05-23T10:45:22.782Z,50396.91
2019-05-23T10:48:09.128Z,50378.82
2019-05-23T10:50:55.673Z,50369.79
2019-05-23T10:53:41.583Z,50411.97
2019-05-23T10:56:27.698Z,50348.70
2019-05-23T10:59:13.785Z,50359.74
2019-05-23T11:01:59.977Z,50382.84
2019-05-23T11:04:46.313Z,50327.61
2019-05-23T11:07:33.601Z,50374.81
2019-05-23T11:10:20.615Z,50356.73
2019-05-23T11:13:15.587Z,50377.82
2019-05-23T11:16:03.698Z,50343.68
2019-05-23T11:18:49.999Z,50375.81
2019-05-23T11:21:36.353Z,50363.76
2019-05-23T11:24:22.448Z,50345.68
2019-05-23T11:27:08.789Z,50356.73
2019-05-23T11:29:55.282Z,50343.68
2019-05-23T11:32:41.432Z,50344.68
2019-05-23T11:35:28.610Z,50364.77
2019-05-23T11:38:14.693Z,50376.82
2019-05-23T11:41:00.742Z,50347.69
2019-05-23T11:43:47.782Z,50352.71
2019-05-23T11:46:37.952Z,50344.68
2019-05-23T11:49:25.173Z,50352.71
2019-05-23T11:52:11.527Z,50390.88
2019-05-23T11:54:57.892Z,50342.67
2019-05-23T11:57:43.840Z,50346.69
2019-05-23T12:00:30.097Z,50334.64
2019-05-23T12:03:16.551Z,50387.86
2019-05-23T12:06:05.545Z,50346.69
2019-05-23T12:08:50.886Z,50359.74
2019-05-23T12:11:42.269Z,50339.66
2019-05-23T12:14:25.230Z,50333.63
2019-05-23T12:17:12.271Z,50321.58
2019-05-23T12:19:58.383Z,50325.60
2019-05-23T12:22:45.187Z,50375.81
2019-05-23T12:25:35.087Z,50344.68
2019-05-23T12:28:21.663Z,50360.75
2019-05-23T12:31:07.946Z,50347.69
2019-05-23T12:33:54.012Z,50347.69
2019-05-23T12:36:42.169Z,50340.66
2019-05-23T12:39:28.580Z,50361.75
2019-05-23T12:42:14.916Z,50367.78
2019-05-23T12:45:01.134Z,50344.68
2019-05-23T12:48:03.979Z,50357.73
2019-05-23T12:50:53.979Z,50332.62
2019-05-23T12:53:38.310Z,50367.78
2019-05-23T12:56:25.050Z,50331.62
2019-05-23T12:59:11.072Z,50366.77
2019-05-23T13:01:59.131Z,50371.79
2019-05-23T13:04:45.625Z,50386.86
2019-05-23T13:07:36.175Z,50339.66
2019-05-23T13:10:24.593Z,50360.75
2019-05-23T13:13:09.589Z,50341.66
2019-05-23T13:15:56.046Z,50352.71
2019-05-23T13:18:42.494Z,50350.70
2019-05-23T13:21:28.909Z,50354.72
2019-05-23T13:24:15.118Z,50340.66
2019-05-23T13:27:01.385Z,50401.93
2019-05-23T13:29:47.435Z,50344.68
2019-05-23T13:32:33.853Z,50362.75
2019-05-23T13:35:20.039Z,50367.78
2019-05-23T13:38:06.148Z,50337.65
2019-05-23T13:40:52.361Z,50346.69
2019-05-23T13:43:38.780Z,50371.79
2019-05-23T13:46:27.569Z,50343.68
2019-05-23T13:49:13.697Z,50367.78
2019-05-23T13:52:00.145Z,50339.66
2019-05-23T13:54:46.478Z,50397.91
2019-05-23T13:57:32.786Z,50356.73
2019-05-23T14:00:19.391Z,50350.70
2019-05-23T14:03:10.627Z,50356.73
2019-05-23T14:06:00.785Z,50348.70
2019-05-23T14:08:47.208Z,50336.64
2019-05-23T14:11:35.730Z,50336.64
2019-05-23T14:14:21.838Z,50300.49
2019-05-23T14:17:32.930Z,50292.45
2019-05-23T14:20:20.715Z,50335.64
2019-05-23T14:23:15.991Z,50374.81
2019-05-23T14:26:03.195Z,50352.71
2019-05-23T14:28:49.142Z,50280.40
2019-05-23T14:31:41.631Z,50325.60
2019-05-23T14:34:28.008Z,50316.56
2019-05-23T14:37:25.914Z,50331.62
2019-05-23T14:40:34.019Z,50348.70
2019-05-23T14:43:24.961Z,50282.41
2019-05-23T14:46:16.471Z,50346.69
2019-05-23T14:49:16.872Z,50344.68
2019-05-23T14:52:11.889Z,50360.75
2019-05-23T14:55:01.724Z,50329.61
2019-05-23T14:57:48.473Z,50277.39
2019-05-23T15:00:35.129Z,50334.64
2019-05-23T15:03:21.611Z,50323.59
2019-05-23T15:06:07.683Z,50342.67
2019-05-23T15:08:54.657Z,50299.48
2019-05-23T15:11:40.620Z,50341.66
2019-05-23T15:14:27.249Z,50346.69
2019-05-23T15:17:13.690Z,50348.70
2019-05-23T15:20:02.359Z,50324.59
2019-05-23T15:22:48.685Z,50344.68
2019-05-23T15:25:34.674Z,50333.63
2019-05-23T15:28:20.621Z,50287.43
2019-05-23T15:31:06.719Z,50303.50
2019-05-23T15:33:52.680Z,50390.88
2019-05-23T15:36:39.109Z,50316.56
2019-05-23T15:39:25.469Z,50314.55
2019-05-23T15:42:12.050Z,50316.56
2019-05-23T15:44:58.757Z,50342.67
2019-05-23T15:47:47.841Z,50335.64
2019-05-23T15:50:42.673Z,50334.64
2019-05-23T15:53:37.572Z,50318.57
2019-05-23T15:56:41.460Z,50332.62
2019-05-23T15:59:52.667Z,50324.59
2019-05-23T16:03:03.741Z,50311.54
2019-05-23T16:05:51.472Z,50369.79
2019-05-23T16:08:38.390Z,50315.55
2019-05-23T16:11:24.766Z,50315.55
2019-05-23T16:14:10.812Z,50284.42
2019-05-23T16:16:57.431Z,50307.52
2019-05-23T16:19:43.675Z,50316.56
2019-05-23T16:22:30.399Z,50348.70
2019-05-23T16:25:19.592Z,50332.62
2019-05-23T16:28:09.150Z,50328.61
2019-05-23T16:30:55.702Z,50330.62
2019-05-23T16:33:41.747Z,50334.64
2019-05-23T16:36:31.124Z,50307.52
2019-05-23T16:39:19.931Z,50336.64
2019-05-23T16:42:08.373Z,50303.50
2019-05-23T16:44:54.494Z,50324.59
2019-05-23T16:47:40.986Z,50312.54
2019-05-23T16:50:27.002Z,50307.52
2019-05-23T16:53:16.174Z,50356.73
2019-05-23T16:56:10.920Z,50320.57
2019-05-23T16:59:19.223Z,50313.55
2019-05-23T17:02:31.657Z,50329.61
2019-05-23T17:05:28.764Z,50330.62
2019-05-23T17:08:34.033Z,50309.53
2019-05-23T17:11:37.702Z,50342.67
2019-05-23T17:14:31.551Z,50320.57
2019-05-23T17:18:00.798Z,50300.49
2019-05-23T17:20:49.812Z,50313.55
2019-05-23T17:23:44.186Z,50330.62
2019-05-23T17:26:48.607Z,50284.42
2019-05-23T17:29:46.612Z,50329.61
2019-05-23T17:32:34.902Z,50302.50
2019-05-23T17:35:21.276Z,50310.53
2019-05-23T17:38:07.462Z,50342.67
2019-05-23T17:40:53.801Z,50278.39
2019-05-23T17:43:39.866Z,50334.64
2019-05-23T17:46:26.886Z,50304.51
2019-05-23T17:49:13.028Z,50342.67
2019-05-23T17:51:58.938Z,50310.53
2019-05-23T17:54:45.041Z,50312.54
2019-05-23T17:57:34.417Z,50320.57
2019-05-23T18:00:27.831Z,50341.66
2019-05-23T18:03:14.240Z,50315.55
2019-05-23T18:06:00.650Z,50341.66
2019-05-23T18:08:46.732Z,50319.57
2019-05-23T18:11:32.720Z,50317.56
2019-05-23T18:14:21.149Z,50362.75
2019-05-23T18:17:07.500Z,50333.63
2019-05-23T18:19:53.592Z,50315.55
2019-05-23T18:22:39.685Z,50309.53
2019-05-23T18:25:27.383Z,50277.39
2019-05-23T18:28:13.987Z,50313.55
2019-05-23T18:31:13.010Z,50342.67
2019-05-23T18:33:59.530Z,50320.57
2019-05-23T18:36:46.253Z,50303.50
2019-05-23T18:39:33.216Z,50349.70
2019-05-23T18:42:19.935Z,50313.55
2019-05-23T18:45:09.591Z,50328.61
2019-05-23T18:47:56.047Z,50302.50
2019-05-23T18:50:42.266Z,50336.64
2019-05-23T18:53:31.714Z,50309.53
2019-05-23T18:56:17.811Z,50296.47
2019-05-23T18:59:04.162Z,50314.55
2019-05-23T19:01:50.867Z,50310.53
2019-05-23T19:04:37.577Z,50282.41
2019-05-23T19:07:24.502Z,50326.60
2019-05-23T19:10:11.854Z,50350.70
2019-05-23T19:12:58.378Z,50283.41
2019-05-23T19:15:45.021Z,50328.61
2019-05-23T19:18:32.723Z,50273.37
2019-05-23T19:21:19.527Z,50334.64
2019-05-23T19:24:07.593Z,50326.60
2019-05-23T19:26:53.601Z,50321.58
2019-05-23T19:29:40.213Z,50322.58
2019-05-23T19:32:28.892Z,50271.36
2019-05-23T19:35:15.352Z,50272.37
2019-05-23T19:38:02.077Z,50279.40
2019-05-23T19:40:48.873Z,50357.73
2019-05-23T19:43:35.812Z,50299.48
2019-05-23T19:46:22.019Z,50326.60
2019-05-23T19:49:08.651Z,50350.70
2019-05-23T19:51:56.463Z,50310.53
2019-05-23T19:54:44.177Z,50309.53
2019-05-23T19:57:31.404Z,50288.44
2019-05-23T20:00:18.601Z,50288.44
2019-05-23T20:03:05.209Z,50254.29
2019-05-23T20:05:52.458Z,50287.43
2019-05-23T20:08:39.171Z,50337.65
2019-05-23T20:11:25.220Z,50337.65
2019-05-23T20:14:11.314Z,50308.52
2019-05-23T20:16:57.328Z,50293.46
2019-05-23T20:19:50.119Z,50346.69
2019-05-23T20:22:34.386Z,50288.44
2019-05-23T20:25:22.782Z,50310.53
2019-05-23T20:28:09.216Z,50324.59
2019-05-23T20:30:56.170Z,50286.43
2019-05-23T20:33:42.632Z,50342.67
2019-05-23T20:36:28.813Z,50304.51
2019-05-23T20:39:15.532Z,50326.60
2019-05-23T20:42:11.624Z,50295.47
2019-05-23T20:44:52.053Z,50341.66
2019-05-23T20:47:42.110Z,50321.58
2019-05-23T20:50:30.907Z,50306.52
2019-05-23T20:53:17.049Z,50266.34
2019-05-23T20:56:03.560Z,50330.62
2019-05-23T20:58:51.102Z,50333.63
2019-05-23T21:01:43.441Z,50288.44
2019-05-23T21:04:29.869Z,50325.60
2019-05-23T21:07:16.270Z,50295.47
2019-05-23T21:10:02.703Z,50336.64
2019-05-23T21:12:48.880Z,50282.41
2019-05-23T21:15:35.232Z,50296.47
2019-05-23T21:18:24.483Z,50296.47
2019-05-23T21:21:10.666Z,50305.51
2019-05-23T21:23:57.345Z,50273.37
2019-05-23T21:26:43.746Z,50298.48
2019-05-23T21:29:30.081Z,50309.53
2019-05-23T21:32:16.841Z,50333.63
2019-05-23T21:35:03.195Z,50339.66
2019-05-23T21:37:49.410Z,50303.50
2019-05-23T21:40:35.896Z,50285.43
2019-05-23T21:43:24.157Z,50328.61
2019-05-23T21:46:13.554Z,50260.32
2019-05-23T21:48:59.605Z,50314.55
2019-05-23T21:51:46.236Z,50297.48
2019-05-23T21:54:32.079Z,50313.55
2019-05-23T21:57:18.566Z,50314.55
2019-05-23T22:00:05.399Z,50344.68
2019-05-23T22:02:52.753Z,50304.51
2019-05-23T22:05:40.805Z,50311.54
2019-05-23T22:08:27.271Z,50329.61
2019-05-23T22:11:13.485Z,50301.49
2019-05-23T22:14:01.974Z,50281.41
2019-05-23T22:16:52.057Z,50298.48
2019-05-23T22:19:38.307Z,50310.53
2019-05-23T22:22:24.374Z,50300.49
2019-05-23T22:25:14.073Z,50314.55
2019-05-23T22:28:00.272Z,50310.53
2019-05-23T22:30:46.387Z,50278.39
2019-05-23T22:33:35.033Z,50283.41
2019-05-23T22:36:21.718Z,50295.47
2019-05-23T22:39:08.047Z,50328.61
2019-05-23T22:41:58.018Z,50303.50
2019-05-23T22:44:44.479Z,50293.46
2019-05-23T22:47:33.602Z,50330.62
2019-05-23T22:50:19.636Z,50304.51
2019-05-23T22:53:08.736Z,50329.61
2019-05-23T22:56:02.531Z,50351.71
2019-05-23T22:58:48.881Z,50299.48
2019-05-23T23:01:35.432Z,50327.61
2019-05-23T23:04:23.504Z,50308.52
2019-05-23T23:07:10.506Z,50272.37
2019-05-23T23:09:57.445Z,50252.28
2019-05-23T23:12:46.880Z,50314.55
2019-05-23T23:15:33.864Z,50297.48
2019-05-23T23:18:20.539Z,50252.28
2019-05-23T23:21:06.912Z,50322.58
2019-05-23T23:23:53.209Z,50291.45
2019-05-23T23:26:39.247Z,50274.38
2019-05-23T23:29:28.614Z,50307.52
2019-05-23T23:32:14.954Z,50275.38
2019-05-23T23:35:01.122Z,50315.55
2019-05-23T23:37:47.390Z,50305.51
2019-05-23T23:40:33.812Z,50299.48
2019-05-23T23:43:22.271Z,50290.45
2019-05-23T23:49:53.251Z,50302.50
2019-05-23T23:52:56.943Z,50294.46
2019-05-23T23:56:00.516Z,50316.56
2019-05-23T23:58:45.553Z,50296.47
